sensor_id;sensor_type;location;lat;lon;timestamp;temperature;humidity
39079;DHT22;24829;49.208;12.080;2023-12-14T00:02:24;5.80;99.90
39079;DHT22;24829;49.208;12.080;2023-12-14T00:04:50;5.80;99.90
39079;DHT22;24829;49.208;12.080;2023-12-14T00:07:15;5.70;99.90
39079;DHT22;24829;49.208;12.080;2023-12-14T00:09:41;5.70;99.90
39079;DHT22;24829;49.208;12.080;2023-12-14T00:12:07;5.80;99.90
39079;DHT22;24829;49.208;12.080;2023-12-14T00:14:33;5.80;99.90
39079;DHT22;24829;49.208;12.080;2023-12-14T00:16:58;5.70;99.90
39079;DHT22;24829;49.208;12.080;2023-12-14T00:19:24;5.60;99.90
39079;DHT22;24829;49.208;12.080;2023-12-14T00:21:50;5.50;99.90
39079;DHT22;24829;49.208;12.080;2023-12-14T00:24:16;5.50;99.90
39079;DHT22;24829;49.208;12.080;2023-12-14T00:26:41;5.40;99.90
39079;DHT22;24829;49.208;12.080;2023-12-14T00:29:07;5.40;99.90
39079;DHT22;24829;49.208;12.080;2023-12-14T00:31:32;5.40;99.90
39079;DHT22;24829;49.208;12.080;2023-12-14T00:33:58;5.30;99.90
39079;DHT22;24829;49.208;12.080;2023-12-14T00:36:24;5.40;99.90
39079;DHT22;24829;49.208;12.080;2023-12-14T00:38:50;5.50;99.90
39079;DHT22;24829;49.208;12.080;2023-12-14T00:41:15;5.50;99.90
39079;DHT22;24829;49.208;12.080;2023-12-14T00:43:41;5.70;99.90
39079;DHT22;24829;49.208;12.080;2023-12-14T00:46:07;5.70;99.90
39079;DHT22;24829;49.208;12.080;2023-12-14T00:48:33;5.80;99.90
39079;DHT22;24829;49.208;12.080;2023-12-14T00:50:58;5.80;99.90
39079;DHT22;24829;49.208;12.080;2023-12-14T00:53:24;5.70;99.90
39079;DHT22;24829;49.208;12.080;2023-12-14T00:55:49;5.70;99.90
39079;DHT22;24829;49.208;12.080;2023-12-14T00:58:15;5.70;99.90
39079;DHT22;24829;49.208;12.080;2023-12-14T01:00:41;5.70;99.90
39079;DHT22;24829;49.208;12.080;2023-12-14T01:03:08;5.70;99.90
39079;DHT22;24829;49.208;12.080;2023-12-14T01:05:33;5.70;99.90
39079;DHT22;24829;49.208;12.080;2023-12-14T01:07:59;5.70;99.90
39079;DHT22;24829;49.208;12.080;2023-12-14T01:10:25;5.70;99.90
39079;DHT22;24829;49.208;12.080;2023-12-14T01:12:50;5.60;99.90
39079;DHT22;24829;49.208;12.080;2023-12-14T01:15:16;5.50;99.90
39079;DHT22;24829;49.208;12.080;2023-12-14T01:17:42;5.50;99.90
39079;DHT22;24829;49.208;12.080;2023-12-14T01:20:07;5.40;99.90
39079;DHT22;24829;49.208;12.080;2023-12-14T01:22:34;5.40;99.90
39079;DHT22;24829;49.208;12.080;2023-12-14T01:24:59;5.30;99.90
39079;DHT22;24829;49.208;12.080;2023-12-14T01:27:25;5.30;99.90
39079;DHT22;24829;49.208;12.080;2023-12-14T01:29:51;5.20;99.90
39079;DHT22;24829;49.208;12.080;2023-12-14T01:32:17;5.30;99.90
39079;DHT22;24829;49.208;12.080;2023-12-14T01:34:42;5.30;99.90
39079;DHT22;24829;49.208;12.080;2023-12-14T01:37:08;5.30;99.90
39079;DHT22;24829;49.208;12.080;2023-12-14T01:39:33;5.40;99.90
39079;DHT22;24829;49.208;12.080;2023-12-14T01:41:59;5.40;99.90
39079;DHT22;24829;49.208;12.080;2023-12-14T01:44:25;5.40;99.90
39079;DHT22;24829;49.208;12.080;2023-12-14T01:46:50;5.40;99.90
39079;DHT22;24829;49.208;12.080;2023-12-14T01:49:16;5.40;99.90
39079;DHT22;24829;49.208;12.080;2023-12-14T01:51:41;5.50;99.90
39079;DHT22;24829;49.208;12.080;2023-12-14T01:54:07;5.50;99.90
39079;DHT22;24829;49.208;12.080;2023-12-14T01:56:33;5.50;99.90
39079;DHT22;24829;49.208;12.080;2023-12-14T01:58:58;5.50;99.90
39079;DHT22;24829;49.208;12.080;2023-12-14T02:01:42;5.50;99.90
39079;DHT22;24829;49.208;12.080;2023-12-14T02:04:08;5.50;99.90
39079;DHT22;24829;49.208;12.080;2023-12-14T02:06:35;5.50;99.90
39079;DHT22;24829;49.208;12.080;2023-12-14T02:09:02;5.40;99.90
39079;DHT22;24829;49.208;12.080;2023-12-14T02:11:27;5.40;99.90
39079;DHT22;24829;49.208;12.080;2023-12-14T02:13:53;5.30;99.90
39079;DHT22;24829;49.208;12.080;2023-12-14T02:16:19;5.20;99.90
39079;DHT22;24829;49.208;12.080;2023-12-14T02:18:45;5.20;99.90
39079;DHT22;24829;49.208;12.080;2023-12-14T02:21:11;5.20;99.90
39079;DHT22;24829;49.208;12.080;2023-12-14T02:23:45;5.20;99.90
39079;DHT22;24829;49.208;12.080;2023-12-14T02:26:12;5.20;99.90
39079;DHT22;24829;49.208;12.080;2023-12-14T02:28:38;5.20;99.90
39079;DHT22;24829;49.208;12.080;2023-12-14T02:31:03;5.20;99.90
39079;DHT22;24829;49.208;12.080;2023-12-14T02:33:29;5.30;99.90
39079;DHT22;24829;49.208;12.080;2023-12-14T02:35:55;5.30;99.90
39079;DHT22;24829;49.208;12.080;2023-12-14T02:38:20;5.30;99.90
39079;DHT22;24829;49.208;12.080;2023-12-14T02:40:46;5.30;99.90
39079;DHT22;24829;49.208;12.080;2023-12-14T02:43:12;5.40;99.90
39079;DHT22;24829;49.208;12.080;2023-12-14T02:45:38;5.40;99.90
39079;DHT22;24829;49.208;12.080;2023-12-14T02:48:03;5.40;99.90
39079;DHT22;24829;49.208;12.080;2023-12-14T02:50:29;5.40;99.90
39079;DHT22;24829;49.208;12.080;2023-12-14T02:52:55;5.40;99.90
39079;DHT22;24829;49.208;12.080;2023-12-14T02:55:21;5.40;99.90
39079;DHT22;24829;49.208;12.080;2023-12-14T02:57:47;5.50;99.90
39079;DHT22;24829;49.208;12.080;2023-12-14T03:00:13;5.50;99.90
39079;DHT22;24829;49.208;12.080;2023-12-14T03:02:38;5.50;99.90
39079;DHT22;24829;49.208;12.080;2023-12-14T03:05:04;5.40;99.90
39079;DHT22;24829;49.208;12.080;2023-12-14T03:07:30;5.50;99.90
39079;DHT22;24829;49.208;12.080;2023-12-14T03:09:55;5.40;99.90
39079;DHT22;24829;49.208;12.080;2023-12-14T03:12:21;5.50;99.90
39079;DHT22;24829;49.208;12.080;2023-12-14T03:14:47;5.40;99.90
39079;DHT22;24829;49.208;12.080;2023-12-14T03:17:12;5.40;99.90
39079;DHT22;24829;49.208;12.080;2023-12-14T03:19:41;5.40;99.90
39079;DHT22;24829;49.208;12.080;2023-12-14T03:22:07;5.30;99.90
39079;DHT22;24829;49.208;12.080;2023-12-14T03:24:33;5.40;99.90
39079;DHT22;24829;49.208;12.080;2023-12-14T03:26:59;5.30;99.90
39079;DHT22;24829;49.208;12.080;2023-12-14T03:29:26;5.40;99.90
39079;DHT22;24829;49.208;12.080;2023-12-14T03:31:52;5.40;99.90
39079;DHT22;24829;49.208;12.080;2023-12-14T03:34:18;5.40;99.90
39079;DHT22;24829;49.208;12.080;2023-12-14T03:36:43;5.50;99.90
39079;DHT22;24829;49.208;12.080;2023-12-14T03:39:09;5.50;99.90
39079;DHT22;24829;49.208;12.080;2023-12-14T03:41:35;5.50;99.90
39079;DHT22;24829;49.208;12.080;2023-12-14T03:44:01;5.60;99.90
39079;DHT22;24829;49.208;12.080;2023-12-14T03:46:26;5.60;99.90
39079;DHT22;24829;49.208;12.080;2023-12-14T03:48:52;5.60;99.90
39079;DHT22;24829;49.208;12.080;2023-12-14T03:51:19;5.60;99.90
39079;DHT22;24829;49.208;12.080;2023-12-14T03:53:45;5.70;99.90
39079;DHT22;24829;49.208;12.080;2023-12-14T03:56:11;5.70;99.90
39079;DHT22;24829;49.208;12.080;2023-12-14T03:58:37;5.60;99.90
39079;DHT22;24829;49.208;12.080;2023-12-14T04:01:02;5.70;99.90
39079;DHT22;24829;49.208;12.080;2023-12-14T04:03:28;5.70;99.90
39079;DHT22;24829;49.208;12.080;2023-12-14T04:05:53;5.60;99.90
39079;DHT22;24829;49.208;12.080;2023-12-14T04:08:19;5.50;99.90
39079;DHT22;24829;49.208;12.080;2023-12-14T04:10:45;5.50;99.90
39079;DHT22;24829;49.208;12.080;2023-12-14T04:13:10;5.40;99.90
39079;DHT22;24829;49.208;12.080;2023-12-14T04:15:36;5.40;99.90
39079;DHT22;24829;49.208;12.080;2023-12-14T04:18:02;5.40;99.90
39079;DHT22;24829;49.208;12.080;2023-12-14T04:20:27;5.40;99.90
39079;DHT22;24829;49.208;12.080;2023-12-14T04:22:53;5.40;99.90
39079;DHT22;24829;49.208;12.080;2023-12-14T04:25:18;5.40;99.90
39079;DHT22;24829;49.208;12.080;2023-12-14T04:27:44;5.40;99.90
39079;DHT22;24829;49.208;12.080;2023-12-14T04:30:10;5.30;99.90
39079;DHT22;24829;49.208;12.080;2023-12-14T04:32:37;5.30;99.90
39079;DHT22;24829;49.208;12.080;2023-12-14T04:35:04;5.40;99.90
39079;DHT22;24829;49.208;12.080;2023-12-14T04:37:30;5.40;99.90
39079;DHT22;24829;49.208;12.080;2023-12-14T04:39:57;5.50;99.90
39079;DHT22;24829;49.208;12.080;2023-12-14T04:42:22;5.40;99.90
39079;DHT22;24829;49.208;12.080;2023-12-14T04:44:48;5.40;99.90
39079;DHT22;24829;49.208;12.080;2023-12-14T04:47:14;5.40;99.90
39079;DHT22;24829;49.208;12.080;2023-12-14T04:49:39;5.50;99.90
39079;DHT22;24829;49.208;12.080;2023-12-14T04:52:05;5.50;99.90
39079;DHT22;24829;49.208;12.080;2023-12-14T04:54:31;5.50;99.90
39079;DHT22;24829;49.208;12.080;2023-12-14T04:56:57;5.50;99.90
39079;DHT22;24829;49.208;12.080;2023-12-14T04:59:23;5.60;99.90
39079;DHT22;24829;49.208;12.080;2023-12-14T05:01:48;5.60;99.90
39079;DHT22;24829;49.208;12.080;2023-12-14T05:04:14;5.60;99.90
39079;DHT22;24829;49.208;12.080;2023-12-14T05:06:39;5.60;99.90
39079;DHT22;24829;49.208;12.080;2023-12-14T05:09:05;5.60;99.90
39079;DHT22;24829;49.208;12.080;2023-12-14T05:11:31;5.60;99.90
39079;DHT22;24829;49.208;12.080;2023-12-14T05:13:57;5.50;99.90
39079;DHT22;24829;49.208;12.080;2023-12-14T05:16:23;5.50;99.90
39079;DHT22;24829;49.208;12.080;2023-12-14T05:18:53;5.50;99.90
39079;DHT22;24829;49.208;12.080;2023-12-14T05:21:19;5.50;99.90
39079;DHT22;24829;49.208;12.080;2023-12-14T05:23:45;5.50;99.90
39079;DHT22;24829;49.208;12.080;2023-12-14T05:26:10;5.50;99.90
39079;DHT22;24829;49.208;12.080;2023-12-14T05:28:36;5.50;99.90
39079;DHT22;24829;49.208;12.080;2023-12-14T05:31:02;5.50;99.90
39079;DHT22;24829;49.208;12.080;2023-12-14T05:33:28;5.40;99.90
39079;DHT22;24829;49.208;12.080;2023-12-14T05:35:54;5.40;99.90
39079;DHT22;24829;49.208;12.080;2023-12-14T05:38:19;5.50;99.90
39079;DHT22;24829;49.208;12.080;2023-12-14T05:40:45;5.40;99.90
39079;DHT22;24829;49.208;12.080;2023-12-14T05:43:11;5.40;99.90
39079;DHT22;24829;49.208;12.080;2023-12-14T05:45:36;5.40;99.90
39079;DHT22;24829;49.208;12.080;2023-12-14T05:48:03;5.40;99.90
39079;DHT22;24829;49.208;12.080;2023-12-14T05:50:31;5.40;99.90
39079;DHT22;24829;49.208;12.080;2023-12-14T05:52:56;5.40;99.90
39079;DHT22;24829;49.208;12.080;2023-12-14T05:55:22;5.40;99.90
39079;DHT22;24829;49.208;12.080;2023-12-14T05:57:48;5.40;99.90
39079;DHT22;24829;49.208;12.080;2023-12-14T06:00:14;5.30;99.90
39079;DHT22;24829;49.208;12.080;2023-12-14T06:02:40;5.30;99.90
39079;DHT22;24829;49.208;12.080;2023-12-14T06:05:07;5.30;99.90
39079;DHT22;24829;49.208;12.080;2023-12-14T06:07:33;5.30;99.90
39079;DHT22;24829;49.208;12.080;2023-12-14T06:09:58;5.30;99.90
39079;DHT22;24829;49.208;12.080;2023-12-14T06:12:24;5.20;99.90
39079;DHT22;24829;49.208;12.080;2023-12-14T06:14:50;5.20;99.90
39079;DHT22;24829;49.208;12.080;2023-12-14T06:17:16;5.20;99.90
39079;DHT22;24829;49.208;12.080;2023-12-14T06:19:42;5.20;99.90
39079;DHT22;24829;49.208;12.080;2023-12-14T06:22:08;5.20;99.90
39079;DHT22;24829;49.208;12.080;2023-12-14T06:24:33;5.20;99.90
39079;DHT22;24829;49.208;12.080;2023-12-14T06:26:59;5.10;99.90
39079;DHT22;24829;49.208;12.080;2023-12-14T06:29:24;5.00;99.90
39079;DHT22;24829;49.208;12.080;2023-12-14T06:31:50;5.00;99.90
39079;DHT22;24829;49.208;12.080;2023-12-14T06:34:16;5.00;99.90
39079;DHT22;24829;49.208;12.080;2023-12-14T06:36:43;5.00;99.90
39079;DHT22;24829;49.208;12.080;2023-12-14T06:39:09;5.10;99.90
39079;DHT22;24829;49.208;12.080;2023-12-14T06:41:36;5.00;99.90
39079;DHT22;24829;49.208;12.080;2023-12-14T06:44:01;5.10;99.90
39079;DHT22;24829;49.208;12.080;2023-12-14T06:46:27;5.00;99.90
39079;DHT22;24829;49.208;12.080;2023-12-14T06:48:53;4.90;99.90
39079;DHT22;24829;49.208;12.080;2023-12-14T06:51:19;5.00;99.90
39079;DHT22;24829;49.208;12.080;2023-12-14T06:53:45;5.00;99.90
39079;DHT22;24829;49.208;12.080;2023-12-14T06:56:11;5.00;99.90
39079;DHT22;24829;49.208;12.080;2023-12-14T06:58:41;5.00;99.90
39079;DHT22;24829;49.208;12.080;2023-12-14T07:01:16;5.00;99.90
39079;DHT22;24829;49.208;12.080;2023-12-14T07:03:45;5.00;99.90
39079;DHT22;24829;49.208;12.080;2023-12-14T07:06:12;5.00;99.90
39079;DHT22;24829;49.208;12.080;2023-12-14T07:08:39;5.00;99.90
39079;DHT22;24829;49.208;12.080;2023-12-14T07:11:06;4.90;99.90
39079;DHT22;24829;49.208;12.080;2023-12-14T07:13:32;4.90;99.90
39079;DHT22;24829;49.208;12.080;2023-12-14T07:15:57;4.90;99.90
39079;DHT22;24829;49.208;12.080;2023-12-14T07:18:23;4.90;99.90
39079;DHT22;24829;49.208;12.080;2023-12-14T07:20:49;4.90;99.90
39079;DHT22;24829;49.208;12.080;2023-12-14T07:23:14;4.90;99.90
39079;DHT22;24829;49.208;12.080;2023-12-14T07:25:40;4.80;99.90
39079;DHT22;24829;49.208;12.080;2023-12-14T07:28:05;4.80;99.90
39079;DHT22;24829;49.208;12.080;2023-12-14T07:30:31;4.70;99.90
39079;DHT22;24829;49.208;12.080;2023-12-14T07:32:57;4.70;99.90
39079;DHT22;24829;49.208;12.080;2023-12-14T07:35:22;4.70;99.90
39079;DHT22;24829;49.208;12.080;2023-12-14T07:37:48;4.70;99.90
39079;DHT22;24829;49.208;12.080;2023-12-14T07:40:14;4.70;99.90
39079;DHT22;24829;49.208;12.080;2023-12-14T07:42:40;4.70;99.90
39079;DHT22;24829;49.208;12.080;2023-12-14T07:45:06;4.80;99.90
39079;DHT22;24829;49.208;12.080;2023-12-14T07:47:33;4.80;99.90
39079;DHT22;24829;49.208;12.080;2023-12-14T07:49:59;4.80;99.90
39079;DHT22;24829;49.208;12.080;2023-12-14T07:52:25;4.80;99.90
39079;DHT22;24829;49.208;12.080;2023-12-14T07:54:50;4.90;99.90
39079;DHT22;24829;49.208;12.080;2023-12-14T07:57:16;4.90;99.90
39079;DHT22;24829;49.208;12.080;2023-12-14T07:59:42;4.90;99.90
39079;DHT22;24829;49.208;12.080;2023-12-14T08:02:08;5.00;99.90
39079;DHT22;24829;49.208;12.080;2023-12-14T08:04:34;5.00;99.90
39079;DHT22;24829;49.208;12.080;2023-12-14T08:06:59;5.10;99.90
39079;DHT22;24829;49.208;12.080;2023-12-14T08:09:25;5.10;99.90
39079;DHT22;24829;49.208;12.080;2023-12-14T08:11:50;5.10;99.90
39079;DHT22;24829;49.208;12.080;2023-12-14T08:14:17;5.20;99.90
39079;DHT22;24829;49.208;12.080;2023-12-14T08:16:43;5.20;99.90
39079;DHT22;24829;49.208;12.080;2023-12-14T08:19:09;5.20;99.90
39079;DHT22;24829;49.208;12.080;2023-12-14T08:21:34;5.30;99.90
39079;DHT22;24829;49.208;12.080;2023-12-14T08:24:00;5.30;99.90
39079;DHT22;24829;49.208;12.080;2023-12-14T08:26:25;5.30;99.90
39079;DHT22;24829;49.208;12.080;2023-12-14T08:28:51;5.20;99.90
39079;DHT22;24829;49.208;12.080;2023-12-14T08:31:17;5.20;99.90
39079;DHT22;24829;49.208;12.080;2023-12-14T08:33:42;5.20;99.90
39079;DHT22;24829;49.208;12.080;2023-12-14T08:36:08;5.10;99.90
39079;DHT22;24829;49.208;12.080;2023-12-14T08:38:34;5.20;99.90
39079;DHT22;24829;49.208;12.080;2023-12-14T08:40:59;5.20;99.90
39079;DHT22;24829;49.208;12.080;2023-12-14T08:43:25;5.30;99.90
39079;DHT22;24829;49.208;12.080;2023-12-14T08:45:51;5.30;99.90
39079;DHT22;24829;49.208;12.080;2023-12-14T08:48:17;5.30;99.90
39079;DHT22;24829;49.208;12.080;2023-12-14T08:50:43;5.30;99.90
39079;DHT22;24829;49.208;12.080;2023-12-14T08:53:08;5.30;99.90
39079;DHT22;24829;49.208;12.080;2023-12-14T08:55:34;5.30;99.90
39079;DHT22;24829;49.208;12.080;2023-12-14T08:58:00;5.40;99.90
39079;DHT22;24829;49.208;12.080;2023-12-14T09:00:26;5.40;99.90
39079;DHT22;24829;49.208;12.080;2023-12-14T09:02:51;5.50;99.90
39079;DHT22;24829;49.208;12.080;2023-12-14T09:05:18;5.50;99.90
39079;DHT22;24829;49.208;12.080;2023-12-14T09:07:46;5.50;99.90
39079;DHT22;24829;49.208;12.080;2023-12-14T09:10:12;5.50;99.90
39079;DHT22;24829;49.208;12.080;2023-12-14T09:12:37;5.50;99.90
39079;DHT22;24829;49.208;12.080;2023-12-14T09:15:04;5.60;99.90
39079;DHT22;24829;49.208;12.080;2023-12-14T09:17:29;5.60;99.90
39079;DHT22;24829;49.208;12.080;2023-12-14T09:20:01;5.60;99.90
39079;DHT22;24829;49.208;12.080;2023-12-14T09:22:30;5.60;99.90
39079;DHT22;24829;49.208;12.080;2023-12-14T09:24:56;5.60;99.90
39079;DHT22;24829;49.208;12.080;2023-12-14T09:27:21;5.50;99.90
39079;DHT22;24829;49.208;12.080;2023-12-14T09:29:47;5.50;99.90
39079;DHT22;24829;49.208;12.080;2023-12-14T09:32:13;5.50;99.90
39079;DHT22;24829;49.208;12.080;2023-12-14T09:34:38;5.50;99.90
39079;DHT22;24829;49.208;12.080;2023-12-14T09:37:04;5.50;99.90
39079;DHT22;24829;49.208;12.080;2023-12-14T09:39:30;5.50;99.90
39079;DHT22;24829;49.208;12.080;2023-12-14T09:42:06;5.50;99.90
39079;DHT22;24829;49.208;12.080;2023-12-14T09:44:33;5.50;99.90
39079;DHT22;24829;49.208;12.080;2023-12-14T09:47:00;5.50;99.90
39079;DHT22;24829;49.208;12.080;2023-12-14T09:49:29;5.50;99.90
39079;DHT22;24829;49.208;12.080;2023-12-14T09:51:58;5.50;99.90
39079;DHT22;24829;49.208;12.080;2023-12-14T09:54:28;5.60;99.90
39079;DHT22;24829;49.208;12.080;2023-12-14T09:56:54;5.60;99.90
39079;DHT22;24829;49.208;12.080;2023-12-14T09:59:20;5.70;99.90
39079;DHT22;24829;49.208;12.080;2023-12-14T10:01:46;5.70;99.90
39079;DHT22;24829;49.208;12.080;2023-12-14T10:06:39;5.80;99.90
39079;DHT22;24829;49.208;12.080;2023-12-14T10:09:06;5.90;99.90
39079;DHT22;24829;49.208;12.080;2023-12-14T10:12:08;6.00;99.90
39079;DHT22;24829;49.208;12.080;2023-12-14T10:14:35;6.10;99.90
39079;DHT22;24829;49.208;12.080;2023-12-14T10:17:20;6.30;99.90
39079;DHT22;24829;49.208;12.080;2023-12-14T10:19:47;6.30;99.90
39079;DHT22;24829;49.208;12.080;2023-12-14T10:22:14;6.40;99.90
39079;DHT22;24829;49.208;12.080;2023-12-14T10:24:43;6.40;99.90
39079;DHT22;24829;49.208;12.080;2023-12-14T10:27:10;6.40;99.90
39079;DHT22;24829;49.208;12.080;2023-12-14T10:29:39;6.50;99.90
39079;DHT22;24829;49.208;12.080;2023-12-14T10:32:06;6.50;99.90
39079;DHT22;24829;49.208;12.080;2023-12-14T10:34:34;6.60;99.90
39079;DHT22;24829;49.208;12.080;2023-12-14T10:37:01;6.60;99.90
39079;DHT22;24829;49.208;12.080;2023-12-14T10:39:30;6.70;99.90
39079;DHT22;24829;49.208;12.080;2023-12-14T10:41:57;6.80;99.90
39079;DHT22;24829;49.208;12.080;2023-12-14T10:44:26;6.90;99.90
39079;DHT22;24829;49.208;12.080;2023-12-14T10:46:55;6.90;99.90
39079;DHT22;24829;49.208;12.080;2023-12-14T10:49:27;7.00;99.90
39079;DHT22;24829;49.208;12.080;2023-12-14T10:51:56;7.00;99.90
39079;DHT22;24829;49.208;12.080;2023-12-14T10:54:24;7.10;99.90
39079;DHT22;24829;49.208;12.080;2023-12-14T10:56:54;7.10;99.90
39079;DHT22;24829;49.208;12.080;2023-12-14T10:59:19;7.10;99.90
39079;DHT22;24829;49.208;12.080;2023-12-14T11:01:54;7.00;99.90
39079;DHT22;24829;49.208;12.080;2023-12-14T11:04:26;7.00;99.90
39079;DHT22;24829;49.208;12.080;2023-12-14T11:06:53;7.00;99.90
39079;DHT22;24829;49.208;12.080;2023-12-14T11:09:19;7.00;99.90
39079;DHT22;24829;49.208;12.080;2023-12-14T11:11:55;7.00;99.90
39079;DHT22;24829;49.208;12.080;2023-12-14T11:14:24;7.00;99.90
39079;DHT22;24829;49.208;12.080;2023-12-14T11:16:54;7.00;99.90
39079;DHT22;24829;49.208;12.080;2023-12-14T11:24:23;6.70;99.90
39079;DHT22;24829;49.208;12.080;2023-12-14T11:26:50;6.70;99.90
39079;DHT22;24829;49.208;12.080;2023-12-14T11:29:16;6.70;99.90
39079;DHT22;24829;49.208;12.080;2023-12-14T11:31:42;6.60;99.90
39079;DHT22;24829;49.208;12.080;2023-12-14T11:34:07;6.60;99.90
39079;DHT22;24829;49.208;12.080;2023-12-14T11:36:33;6.70;99.90
39079;DHT22;24829;49.208;12.080;2023-12-14T11:38:59;6.70;99.90
39079;DHT22;24829;49.208;12.080;2023-12-14T11:41:24;6.70;99.90
39079;DHT22;24829;49.208;12.080;2023-12-14T11:43:51;6.70;99.90
39079;DHT22;24829;49.208;12.080;2023-12-14T11:46:17;6.70;99.90
39079;DHT22;24829;49.208;12.080;2023-12-14T11:48:47;6.70;99.90
39079;DHT22;24829;49.208;12.080;2023-12-14T11:51:15;6.80;99.90
39079;DHT22;24829;49.208;12.080;2023-12-14T11:53:40;6.80;99.90
39079;DHT22;24829;49.208;12.080;2023-12-14T11:56:08;6.80;99.90
39079;DHT22;24829;49.208;12.080;2023-12-14T11:58:34;6.80;99.90
39079;DHT22;24829;49.208;12.080;2023-12-14T12:01:17;6.90;99.90
39079;DHT22;24829;49.208;12.080;2023-12-14T12:03:44;6.90;99.90
39079;DHT22;24829;49.208;12.080;2023-12-14T12:06:27;7.00;99.90
39079;DHT22;24829;49.208;12.080;2023-12-14T12:08:53;7.00;99.90
39079;DHT22;24829;49.208;12.080;2023-12-14T12:11:23;7.00;99.90
39079;DHT22;24829;49.208;12.080;2023-12-14T12:13:56;7.00;99.90
39079;DHT22;24829;49.208;12.080;2023-12-14T12:16:22;7.00;99.90
39079;DHT22;24829;49.208;12.080;2023-12-14T12:18:49;7.00;99.90
39079;DHT22;24829;49.208;12.080;2023-12-14T12:21:16;6.90;99.90
39079;DHT22;24829;49.208;12.080;2023-12-14T12:23:42;6.80;99.90
39079;DHT22;24829;49.208;12.080;2023-12-14T12:26:08;6.80;99.90
39079;DHT22;24829;49.208;12.080;2023-12-14T12:28:33;6.80;99.90
39079;DHT22;24829;49.208;12.080;2023-12-14T12:31:00;6.90;99.90
39079;DHT22;24829;49.208;12.080;2023-12-14T12:33:25;6.90;99.90
39079;DHT22;24829;49.208;12.080;2023-12-14T12:35:52;6.90;99.90
39079;DHT22;24829;49.208;12.080;2023-12-14T12:38:17;6.90;99.90
39079;DHT22;24829;49.208;12.080;2023-12-14T12:40:44;6.90;99.90
39079;DHT22;24829;49.208;12.080;2023-12-14T12:43:10;6.80;99.90
39079;DHT22;24829;49.208;12.080;2023-12-14T12:45:37;6.90;99.90
39079;DHT22;24829;49.208;12.080;2023-12-14T12:48:03;6.90;99.90
39079;DHT22;24829;49.208;12.080;2023-12-14T12:50:29;6.90;99.90
39079;DHT22;24829;49.208;12.080;2023-12-14T12:52:55;6.90;99.90
39079;DHT22;24829;49.208;12.080;2023-12-14T12:55:21;7.00;99.90
39079;DHT22;24829;49.208;12.080;2023-12-14T12:57:48;7.00;99.90
39079;DHT22;24829;49.208;12.080;2023-12-14T13:00:14;7.00;99.90
39079;DHT22;24829;49.208;12.080;2023-12-14T13:02:41;7.00;99.90
39079;DHT22;24829;49.208;12.080;2023-12-14T13:05:08;6.90;99.90
39079;DHT22;24829;49.208;12.080;2023-12-14T13:07:35;6.90;99.90
39079;DHT22;24829;49.208;12.080;2023-12-14T13:10:02;6.90;99.90
39079;DHT22;24829;49.208;12.080;2023-12-14T13:12:29;6.80;99.90
39079;DHT22;24829;49.208;12.080;2023-12-14T13:14:54;6.70;99.90
39079;DHT22;24829;49.208;12.080;2023-12-14T13:17:20;6.70;99.90
39079;DHT22;24829;49.208;12.080;2023-12-14T13:19:45;6.70;99.90
39079;DHT22;24829;49.208;12.080;2023-12-14T13:22:11;6.70;99.90
39079;DHT22;24829;49.208;12.080;2023-12-14T13:24:38;6.60;99.90
39079;DHT22;24829;49.208;12.080;2023-12-14T13:27:04;6.60;99.90
39079;DHT22;24829;49.208;12.080;2023-12-14T13:29:30;6.60;99.90
39079;DHT22;24829;49.208;12.080;2023-12-14T13:32:00;6.50;99.90
39079;DHT22;24829;49.208;12.080;2023-12-14T13:34:26;6.50;99.90
39079;DHT22;24829;49.208;12.080;2023-12-14T13:36:52;6.50;99.90
39079;DHT22;24829;49.208;12.080;2023-12-14T13:39:17;6.50;99.90
39079;DHT22;24829;49.208;12.080;2023-12-14T13:41:43;6.50;99.90
39079;DHT22;24829;49.208;12.080;2023-12-14T13:44:08;6.50;99.90
39079;DHT22;24829;49.208;12.080;2023-12-14T13:46:34;6.50;99.90
39079;DHT22;24829;49.208;12.080;2023-12-14T13:49:00;6.50;99.90
39079;DHT22;24829;49.208;12.080;2023-12-14T13:51:27;6.50;99.90
39079;DHT22;24829;49.208;12.080;2023-12-14T13:53:53;6.50;99.90
39079;DHT22;24829;49.208;12.080;2023-12-14T13:56:19;6.50;99.90
39079;DHT22;24829;49.208;12.080;2023-12-14T13:58:44;6.50;99.90
39079;DHT22;24829;49.208;12.080;2023-12-14T14:01:10;6.50;99.90
39079;DHT22;24829;49.208;12.080;2023-12-14T14:03:36;6.50;99.90
39079;DHT22;24829;49.208;12.080;2023-12-14T14:06:03;6.50;99.90
39079;DHT22;24829;49.208;12.080;2023-12-14T14:08:29;6.50;99.90
39079;DHT22;24829;49.208;12.080;2023-12-14T14:10:57;6.50;99.90
39079;DHT22;24829;49.208;12.080;2023-12-14T14:13:23;6.40;99.90
39079;DHT22;24829;49.208;12.080;2023-12-14T14:15:49;6.30;99.90
39079;DHT22;24829;49.208;12.080;2023-12-14T14:18:14;6.30;99.90
39079;DHT22;24829;49.208;12.080;2023-12-14T14:20:40;6.20;99.90
39079;DHT22;24829;49.208;12.080;2023-12-14T14:23:06;6.20;99.90
39079;DHT22;24829;49.208;12.080;2023-12-14T14:25:31;6.20;99.90
39079;DHT22;24829;49.208;12.080;2023-12-14T14:27:57;6.20;99.90
39079;DHT22;24829;49.208;12.080;2023-12-14T14:30:24;6.20;99.90
39079;DHT22;24829;49.208;12.080;2023-12-14T14:32:49;6.10;99.90
39079;DHT22;24829;49.208;12.080;2023-12-14T14:35:15;6.10;99.90
39079;DHT22;24829;49.208;12.080;2023-12-14T14:37:41;6.10;99.90
39079;DHT22;24829;49.208;12.080;2023-12-14T14:40:14;6.10;99.90
39079;DHT22;24829;49.208;12.080;2023-12-14T14:42:40;6.20;99.90
39079;DHT22;24829;49.208;12.080;2023-12-14T14:45:07;6.20;99.90
39079;DHT22;24829;49.208;12.080;2023-12-14T14:47:33;6.20;99.90
39079;DHT22;24829;49.208;12.080;2023-12-14T14:50:00;6.30;99.90
39079;DHT22;24829;49.208;12.080;2023-12-14T14:52:30;6.30;99.90
39079;DHT22;24829;49.208;12.080;2023-12-14T14:54:56;6.30;99.90
39079;DHT22;24829;49.208;12.080;2023-12-14T14:57:22;6.30;99.90
39079;DHT22;24829;49.208;12.080;2023-12-14T14:59:48;6.30;99.90
39079;DHT22;24829;49.208;12.080;2023-12-14T15:02:14;6.30;99.90
39079;DHT22;24829;49.208;12.080;2023-12-14T15:04:39;6.20;99.90
39079;DHT22;24829;49.208;12.080;2023-12-14T15:07:05;6.30;99.90
39079;DHT22;24829;49.208;12.080;2023-12-14T15:09:31;6.30;99.90
39079;DHT22;24829;49.208;12.080;2023-12-14T15:11:56;6.30;99.90
39079;DHT22;24829;49.208;12.080;2023-12-14T15:14:22;6.20;99.90
39079;DHT22;24829;49.208;12.080;2023-12-14T15:16:48;6.20;99.90
39079;DHT22;24829;49.208;12.080;2023-12-14T15:19:13;6.20;99.90
39079;DHT22;24829;49.208;12.080;2023-12-14T15:21:39;6.30;99.90
39079;DHT22;24829;49.208;12.080;2023-12-14T15:24:05;6.30;99.90
39079;DHT22;24829;49.208;12.080;2023-12-14T15:26:31;6.30;99.90
39079;DHT22;24829;49.208;12.080;2023-12-14T15:28:58;6.30;99.90
39079;DHT22;24829;49.208;12.080;2023-12-14T15:31:25;6.30;99.90
39079;DHT22;24829;49.208;12.080;2023-12-14T15:33:50;6.30;99.90